createdAt,value
2023-01-04T00:03:16.709Z,101674.91
2023-01-04T00:08:18.282Z,101669.00
2023-01-04T00:13:19.698Z,101669.19
2023-01-04T00:18:21.105Z,101673.56
2023-01-04T00:23:22.558Z,101682.00
2023-01-04T00:28:23.971Z,101667.69
2023-01-04T00:33:25.519Z,101667.69
2023-01-04T00:38:26.993Z,101659.94
2023-01-04T00:43:28.449Z,101661.47
2023-01-04T00:48:30.515Z,101661.44
2023-01-04T00:53:31.962Z,101658.88
2023-01-04T00:58:33.385Z,101663.00
2023-01-04T01:03:38.714Z,101653.69
2023-01-04T01:08:40.436Z,101657.03
2023-01-04T01:13:41.882Z,101657.03
2023-01-04T01:18:44.871Z,101651.91
2023-01-04T01:23:47.683Z,101656.13
2023-01-04T01:28:49.836Z,101660.44
2023-01-04T01:33:53.123Z,101659.75
2023-01-04T01:38:54.768Z,101652.31
2023-01-04T01:43:58.923Z,101655.88
2023-01-04T01:49:11.464Z,101651.78
2023-01-04T01:54:17.600Z,101656.03
2023-01-04T01:59:20.696Z,101649.34
2023-01-04T02:04:22.152Z,101650.25
2023-01-04T02:09:23.717Z,101650.28
2023-01-04T02:14:29.007Z,101649.44
2023-01-04T02:19:48.954Z,101656.28
2023-01-04T02:25:12.123Z,101642.84
2023-01-04T02:30:41.837Z,101630.22
2023-01-04T02:35:58.215Z,101616.75
2023-01-04T02:41:18.084Z,101619.25
2023-01-04T02:46:27.523Z,101605.69
2023-01-04T02:51:35.148Z,101616.50
2023-01-04T02:56:51.576Z,101621.47
2023-01-04T03:02:47.749Z,101629.78
2023-01-04T03:07:49.341Z,101619.66
2023-01-04T03:12:58.691Z,101621.34
2023-01-04T03:18:18.464Z,101611.25
2023-01-04T03:23:42.120Z,101606.97
2023-01-04T03:29:04.074Z,101593.50
2023-01-04T03:34:24.710Z,101589.31
2023-01-04T03:40:07.299Z,101577.66
2023-01-04T03:45:37.102Z,101568.44
2023-01-04T03:50:45.466Z,101575.13
2023-01-04T03:55:48.773Z,101550.66
2023-01-04T04:00:50.313Z,101543.06
2023-01-04T04:06:10.275Z,101535.53
2023-01-04T04:11:30.112Z,101526.31
2023-01-04T04:16:31.665Z,101513.72
2023-01-04T04:21:33.283Z,101507.88
2023-01-04T04:26:34.749Z,101506.19
2023-01-04T04:31:36.271Z,101488.59
2023-01-04T04:36:38.058Z,101486.84
2023-01-04T04:41:41.725Z,101485.16
2023-01-04T04:46:44.791Z,101482.63
2023-01-04T04:51:46.767Z,101469.16
2023-01-04T04:56:49.366Z,101472.50
2023-01-04T05:01:51.470Z,101463.31
2023-01-04T05:06:53.120Z,101454.06
2023-01-04T05:12:12.943Z,101450.72
2023-01-04T05:17:14.345Z,101449.94
2023-01-04T05:22:15.779Z,101446.66
2023-01-04T05:27:17.241Z,101451.81
2023-01-04T05:32:19.835Z,101447.66
2023-01-04T05:37:21.269Z,101450.25
2023-01-04T05:42:25.544Z,101443.53
2023-01-04T05:47:28.003Z,101436.78
2023-01-04T05:52:29.566Z,101430.88
2023-01-04T05:57:31.011Z,101431.69
2023-01-04T06:02:32.554Z,101426.59
2023-01-04T06:07:34.190Z,101420.63
2023-01-04T06:12:35.736Z,101422.25
2023-01-04T06:17:38.341Z,101433.25
2023-01-04T06:22:43.142Z,101426.44
2023-01-04T06:27:44.688Z,101422.16
2023-01-04T06:32:46.252Z,101411.94
2023-01-04T06:37:47.677Z,101406.81
2023-01-04T06:42:49.113Z,101400.88
2023-01-04T06:47:50.544Z,101410.19
2023-01-04T06:52:51.962Z,101406.75
2023-01-04T06:57:59.245Z,101396.53
2023-01-04T07:03:13.857Z,101388.81
2023-01-04T07:08:17.048Z,101387.09
2023-01-04T07:13:18.544Z,101381.97
2023-01-04T07:18:20.088Z,101383.63
2023-01-04T07:23:22.076Z,101370.91
2023-01-04T07:28:42.413Z,101385.25
2023-01-04T07:33:43.906Z,101380.19
2023-01-04T07:38:45.374Z,101382.72
2023-01-04T07:43:46.774Z,101373.38
2023-01-04T07:48:48.346Z,101372.50
2023-01-04T07:53:50.084Z,101364.88
2023-01-04T07:58:56.848Z,101359.72
2023-01-04T08:03:58.416Z,101360.50
2023-01-04T08:09:00.520Z,101353.72
2023-01-04T08:14:02.793Z,101340.19
2023-01-04T08:19:08.953Z,101322.44
2023-01-04T08:24:16.088Z,101318.97
2023-01-04T08:29:17.615Z,101306.13
2023-01-04T08:34:19.032Z,101296.66
2023-01-04T08:39:21.705Z,101292.22
2023-01-04T08:44:25.658Z,101290.34
2023-01-04T08:49:27.250Z,101298.66
2023-01-04T08:54:28.702Z,101278.22
2023-01-04T08:59:30.240Z,101261.13
2023-01-04T09:04:31.775Z,101281.41
2023-01-04T09:09:33.333Z,101294.00
2023-01-04T09:14:34.940Z,101296.53
2023-01-04T09:19:36.457Z,101271.78
2023-01-04T09:24:37.952Z,101280.94
2023-01-04T09:29:39.442Z,101284.22
2023-01-04T09:34:40.954Z,101288.41
2023-01-04T09:39:42.603Z,101297.63
2023-01-04T09:50:24.412Z,101273.00
2023-01-04T09:55:40.799Z,101272.28
2023-01-04T10:00:51.473Z,101250.16
2023-01-04T10:05:55.444Z,101259.31
2023-01-04T10:11:04.216Z,101245.66
2023-01-04T10:17:01.812Z,101242.16
2023-01-04T10:21:59.026Z,101230.16
2023-01-04T10:27:17.946Z,101220.91
2023-01-04T10:32:33.625Z,101205.72
2023-01-04T10:37:37.908Z,101209.16
2023-01-04T10:43:11.106Z,101217.63
2023-01-04T10:48:27.626Z,101207.34
2023-01-04T10:53:48.662Z,101203.81
2023-01-04T10:59:19.321Z,101202.16
2023-01-04T11:04:27.218Z,101202.94
2023-01-04T11:09:38.653Z,101190.06
2023-01-04T11:14:40.192Z,101193.25
2023-01-04T11:19:42.671Z,101189.06
2023-01-04T11:25:24.180Z,101208.75
2023-01-04T11:30:21.683Z,101193.44
2023-01-04T11:35:44.248Z,101186.59
2023-01-04T11:40:58.000Z,101193.13
2023-01-04T11:46:21.043Z,101196.22
2023-01-04T11:51:31.711Z,101197.66
2023-01-04T11:56:35.879Z,101199.03
2023-01-04T12:01:49.632Z,101194.59
2023-01-04T12:06:56.813Z,101168.97
2023-01-04T12:12:01.547Z,101194.66
2023-01-04T12:17:31.111Z,101182.78
2023-01-04T12:22:38.601Z,101181.88
2023-01-04T12:27:48.038Z,101169.69
2023-01-04T12:32:49.801Z,101163.53
2023-01-04T12:37:51.389Z,101155.00
2023-01-04T12:43:14.760Z,101137.09
2023-01-04T12:48:47.262Z,101164.38
2023-01-04T12:53:56.780Z,101119.22
2023-01-04T12:59:26.435Z,101104.72
2023-01-04T13:04:41.095Z,101118.25
2023-01-04T13:09:50.310Z,101118.19
2023-01-04T13:14:57.482Z,101111.47
2023-01-04T13:19:59.139Z,101094.41
2023-01-04T13:25:03.037Z,101104.59
2023-01-04T13:30:05.145Z,101084.91
2023-01-04T13:35:15.191Z,101096.72
2023-01-04T13:40:26.141Z,101072.19
2023-01-04T13:45:32.834Z,101073.09
2023-01-04T13:50:42.790Z,101083.25
2023-01-04T13:55:49.455Z,101063.66
2023-01-04T14:00:58.058Z,101052.50
2023-01-04T14:06:19.309Z,101066.94
2023-01-04T14:11:46.196Z,101070.31
2023-01-04T14:16:48.214Z,101063.72
2023-01-04T14:21:49.709Z,101057.41
2023-01-04T14:26:51.172Z,101048.38
2023-01-04T14:31:52.705Z,101059.66
2023-01-04T14:37:06.229Z,101053.81
2023-01-04T14:42:27.749Z,101070.91
2023-01-04T14:47:29.180Z,101072.72
2023-01-04T14:52:30.831Z,101066.75
2023-01-04T14:57:33.261Z,101059.97
2023-01-04T15:02:34.989Z,101054.88
2023-01-04T15:07:40.197Z,101055.16
2023-01-04T15:12:41.657Z,101052.53
2023-01-04T15:17:44.855Z,101054.97
2023-01-04T15:22:46.399Z,101048.13
2023-01-04T15:27:47.918Z,101055.78
2023-01-04T15:32:49.564Z,101054.97
2023-01-04T15:37:52.189Z,101069.44
2023-01-04T15:42:59.411Z,101054.13
2023-01-04T15:48:03.305Z,101037.19
2023-01-04T15:53:06.170Z,101008.31
2023-01-04T15:58:07.608Z,101018.66
2023-01-04T16:03:09.133Z,101027.34
2023-01-04T16:08:11.531Z,101030.78
2023-01-04T16:13:13.138Z,101027.25
2023-01-04T16:18:14.567Z,101013.53
2023-01-04T16:23:16.080Z,101020.25
2023-01-04T16:28:17.652Z,101012.50
2023-01-04T16:33:19.066Z,100998.84
2023-01-04T16:38:21.143Z,101018.56
2023-01-04T16:43:22.757Z,101019.50
2023-01-04T16:48:24.237Z,101018.59
2023-01-04T16:53:25.730Z,101048.31
2023-01-04T16:58:29.620Z,101013.47
2023-01-04T17:03:32.073Z,101009.41
2023-01-04T17:08:34.037Z,101012.22
2023-01-04T17:13:35.685Z,101010.75
2023-01-04T17:18:37.651Z,101010.88
2023-01-04T17:23:42.787Z,101022.94
2023-01-04T17:28:44.726Z,101028.03
2023-01-04T17:33:47.649Z,101031.31
2023-01-04T17:38:49.488Z,101017.78
2023-01-04T17:43:53.732Z,101002.63
2023-01-04T17:49:21.120Z,101018.75
2023-01-04T17:54:16.917Z,101016.44
2023-01-04T17:59:18.410Z,100994.69
2023-01-04T18:04:20.706Z,101000.97
2023-01-04T18:09:24.503Z,100985.81
2023-01-04T18:14:26.228Z,101004.66
2023-01-04T18:19:29.977Z,100990.31
2023-01-04T18:24:37.305Z,100986.97
2023-01-04T18:29:39.555Z,100993.78
2023-01-04T18:34:41.021Z,100986.06
2023-01-04T18:39:42.539Z,100989.44
2023-01-04T18:44:48.291Z,101001.44
2023-01-04T18:49:51.399Z,100997.19
2023-01-04T18:54:52.884Z,100992.09
2023-01-04T18:59:54.430Z,101008.19
2023-01-04T19:04:55.848Z,100996.22
2023-01-04T19:09:57.300Z,101005.34
2023-01-04T19:14:58.726Z,100989.09
2023-01-04T19:20:00.144Z,100980.34
2023-01-04T19:25:01.827Z,100980.97
2023-01-04T19:30:03.710Z,100972.34
2023-01-04T19:35:05.596Z,100985.75
2023-01-04T19:40:07.491Z,100977.03
2023-01-04T19:45:10.844Z,100982.84
2023-01-04T19:50:12.850Z,100988.59
2023-01-04T19:55:14.545Z,100990.03
2023-01-04T20:00:16.239Z,100992.34
2023-01-04T20:05:17.863Z,100993.84
2023-01-04T20:10:19.336Z,100997.81
2023-01-04T20:15:21.424Z,100967.09
2023-01-04T20:20:22.882Z,100978.09
2023-01-04T20:25:24.279Z,100975.31
2023-01-04T20:30:25.678Z,100980.44
2023-01-04T20:35:27.342Z,100987.13
2023-01-04T20:40:28.877Z,100995.63
2023-01-04T20:45:30.312Z,101014.16
2023-01-04T20:50:32.658Z,101020.13
2023-01-04T20:55:41.597Z,101024.41
2023-01-04T21:00:43.900Z,101030.31
2023-01-04T21:05:45.377Z,101027.66
2023-01-04T21:10:46.950Z,101002.78
2023-01-04T21:15:48.553Z,101017.13
2023-01-04T21:20:50.337Z,100997.34
2023-01-04T21:25:52.340Z,100976.88
2023-01-04T21:30:53.882Z,100982.81
2023-01-04T21:35:55.395Z,100981.22
2023-01-04T21:40:56.886Z,100983.09
2023-01-04T21:45:58.351Z,100970.22
2023-01-04T21:51:00.447Z,100953.13
2023-01-04T21:56:05.599Z,100954.78
2023-01-04T22:01:11.586Z,100938.50
2023-01-04T22:06:14.123Z,100942.66
2023-01-04T22:11:16.268Z,100932.41
2023-01-04T22:16:18.577Z,100937.38
2023-01-04T22:21:23.953Z,100926.31
2023-01-04T22:26:25.488Z,100918.63
2023-01-04T22:31:27.023Z,100920.97
2023-01-04T22:36:28.752Z,100907.28
2023-01-04T22:41:30.391Z,100909.84
2023-01-04T22:46:33.774Z,100894.63
2023-01-04T22:51:35.233Z,100895.47
2023-01-04T22:56:36.752Z,100911.69
2023-01-04T23:01:38.414Z,100903.50
2023-01-04T23:06:39.943Z,100910.97
2023-01-04T23:11:42.617Z,100924.28
2023-01-04T23:16:45.288Z,100911.81
2023-01-04T23:21:46.762Z,100925.34
2023-01-04T23:26:48.226Z,100898.09
2023-01-04T23:31:49.708Z,100897.84
2023-01-04T23:36:51.193Z,100903.75
2023-01-04T23:41:52.653Z,100918.44
2023-01-04T23:52:05.287Z,100912.28
2023-01-04T23:57:06.838Z,100922.59
